Time;durP1;ratioP1;P1;durP2;ratioP2;P2;SDS_P1;SDS_P2;PMS_P1;PMS_P2;Temp;Humidity;BMP_temperature;BMP_pressure;BME280_temperature;BME280_humidity;BME280_pressure;Samples;Min_cycle;Max_cycle;Signal;HPM_P1;HPM_P2
2021/03/11 00:01:57;;;;;;;18.70;12.03;;;0.70;99.90;-0.50;97006.00;;;;5088151;28;20426;-70
2021/03/11 00:04:45;;;;;;;17.77;12.73;;;0.80;99.90;-0.60;97009.00;;;;5087297;28;20488;-70
2021/03/11 00:07:34;;;;;;;18.97;12.43;;;0.70;99.90;-0.50;96997.00;;;;5085501;28;20460;-70
2021/03/11 00:10:23;;;;;;;21.60;12.73;;;0.80;99.90;-0.50;97003.00;;;;5085236;28;20436;-70
2021/03/11 00:13:11;;;;;;;17.37;12.23;;;0.70;99.90;-0.40;97000.00;;;;5082208;28;20434;-70
2021/03/11 00:16:00;;;;;;;19.13;12.57;;;0.80;99.90;-0.40;97000.00;;;;5074542;28;20963;-69
2021/03/11 00:18:48;;;;;;;23.13;12.70;;;0.80;99.90;-0.60;97014.00;;;;5087173;28;20452;-69
2021/03/11 00:21:35;;;;;;;21.73;13.87;;;0.80;99.90;-0.60;97001.00;;;;5087039;28;20432;-70
2021/03/11 00:24:23;;;;;;;19.50;13.73;;;0.70;99.90;-0.50;96993.00;;;;5087999;28;20426;-70
2021/03/11 00:27:12;;;;;;;19.03;12.33;;;0.70;99.90;-0.40;97000.00;;;;5087378;28;20449;-70
2021/03/11 00:30:00;;;;;;;18.17;12.53;;;0.80;99.90;-0.40;96999.00;;;;5085180;28;20433;-70
2021/03/11 00:32:48;;;;;;;18.63;13.10;;;0.80;99.90;-0.40;97003.00;;;;5089296;28;20441;-71
2021/03/11 00:35:36;;;;;;;18.27;12.90;;;0.80;99.90;-0.40;96993.00;;;;5087604;28;20940;-69
2021/03/11 00:38:24;;;;;;;21.43;13.87;;;0.80;99.90;-0.30;96997.00;;;;5087823;28;20937;-69
2021/03/11 00:41:12;;;;;;;23.67;13.90;;;0.80;99.90;-0.20;96986.00;;;;5094723;28;20437;-68
2021/03/11 00:44:00;;;;;;;19.27;13.27;;;0.90;99.90;-0.20;96983.00;;;;5095083;28;20576;-68
2021/03/11 00:46:48;;;;;;;20.70;13.60;;;0.90;99.90;-0.30;96980.00;;;;5089276;28;20457;-70
2021/03/11 00:49:36;;;;;;;18.93;12.13;;;0.90;99.90;-0.40;96975.00;;;;5084644;28;20786;-70
2021/03/11 00:52:24;;;;;;;16.03;12.13;;;0.90;99.90;-0.70;96970.00;;;;5076855;28;20802;-70
2021/03/11 00:55:13;;;;;;;21.00;14.33;;;0.80;99.90;-0.60;96971.00;;;;5088892;28;20503;-70
2021/03/11 00:58:01;;;;;;;20.53;13.23;;;0.70;99.90;-0.50;96971.00;;;;5086724;28;20454;-70
2021/03/11 01:00:50;;;;;;;19.60;13.33;;;0.70;99.90;-0.40;96961.00;;;;5086504;28;20464;-70
2021/03/11 01:03:38;;;;;;;18.03;13.23;;;0.70;99.90;-0.50;96956.00;;;;5087478;28;20443;-68
2021/03/11 01:06:25;;;;;;;18.63;13.60;;;0.80;99.90;-0.40;96958.00;;;;5086230;28;20856;-71
2021/03/11 01:09:13;;;;;;;19.63;13.53;;;0.80;99.90;-0.40;96952.00;;;;5086179;28;20441;-70
2021/03/11 01:12:02;;;;;;;20.07;13.67;;;0.80;99.90;-0.50;96955.00;;;;5075919;28;20810;-70
2021/03/11 01:14:50;;;;;;;18.07;12.53;;;0.80;99.90;-0.50;96949.00;;;;5088016;28;20434;-70
2021/03/11 01:17:39;;;;;;;17.03;13.07;;;0.80;99.90;-0.50;96947.00;;;;5087527;28;20984;-70
2021/03/11 01:20:28;;;;;;;17.47;11.50;;;1.50;99.90;-0.50;96940.00;;;;5087049;28;20430;-71
2021/03/11 01:23:16;;;;;;;18.43;13.27;;;0.80;99.90;-0.60;96927.00;;;;5086701;28;20426;-70
2021/03/11 01:26:04;;;;;;;18.27;13.03;;;0.80;99.90;-0.60;96930.00;;;;5086518;28;20469;-70
2021/03/11 01:28:52;;;;;;;18.93;12.27;;;0.70;99.90;-0.70;96913.00;;;;5086847;28;20438;-70
2021/03/11 01:31:40;;;;;;;21.63;14.70;;;0.70;99.90;-0.80;96916.00;;;;5086551;28;21301;-70
2021/03/11 01:34:28;;;;;;;19.07;12.60;;;0.70;99.90;-0.80;96912.00;;;;5086291;28;20799;-70
2021/03/11 01:37:16;;;;;;;21.07;12.47;;;0.60;99.90;-1.00;96912.00;;;;5086677;28;20503;-71
2021/03/11 01:40:08;;;;;;;20.37;13.33;;;0.50;99.90;-1.10;96908.00;;;;5084614;28;20944;-71
2021/03/11 01:42:56;;;;;;;16.77;12.03;;;0.40;99.90;-1.10;96911.00;;;;5085745;28;20450;-71
2021/03/11 01:45:44;;;;;;;18.43;13.57;;;0.30;99.90;-1.10;96904.00;;;;5086455;28;20476;-69
2021/03/11 01:48:32;;;;;;;19.87;13.97;;;0.30;99.90;-1.10;96904.00;;;;5086116;28;20441;-70
2021/03/11 01:51:23;;;;;;;19.53;15.07;;;0.30;99.90;-1.10;96899.00;;;;5086083;28;20990;-69
2021/03/11 01:54:11;;;;;;;23.20;14.07;;;0.20;99.90;-1.10;96900.00;;;;5086927;28;20440;-70
2021/03/11 01:57:00;;;;;;;22.67;14.47;;;0.20;99.90;-1.10;96885.00;;;;5085158;28;20446;-69
2021/03/11 01:59:49;;;;;;;21.73;14.17;;;0.30;99.90;-1.10;96884.00;;;;5082762;28;20436;-70
2021/03/11 02:02:39;;;;;;;28.67;15.27;;;0.20;99.90;-1.10;96880.00;;;;5086869;28;20441;-69
2021/03/11 02:05:27;;;;;;;23.23;14.37;;;0.20;99.90;-1.10;96873.00;;;;5085763;28;20473;-69
2021/03/11 02:08:16;;;;;;;22.93;15.37;;;0.20;99.90;-1.20;96871.00;;;;5085657;28;20998;-70
2021/03/11 02:11:07;;;;;;;21.90;13.67;;;0.20;99.90;-1.30;96854.00;;;;5085105;28;20445;-69
2021/03/11 02:14:05;;;;;;;25.10;15.97;;;0.20;99.90;-1.30;96868.00;;;;5086259;28;20434;-70
2021/03/11 02:16:56;;;;;;;22.30;16.13;;;0.10;99.90;-1.30;96853.00;;;;5087219;28;20449;-70
2021/03/11 02:20:09;;;;;;;23.97;15.47;;;0.10;99.90;-1.20;96855.00;;;;5077478;28;20881;-71
2021/03/11 02:23:20;;;;;;;21.20;14.27;;;0.10;99.90;-1.10;96844.00;;;;5084115;28;20429;-70
2021/03/11 02:26:24;;;;;;;20.37;13.60;;;0.10;99.90;-1.10;96849.00;;;;5084974;28;20992;-70
2021/03/11 02:29:17;;;;;;;24.47;15.60;;;0.10;99.90;-1.20;96842.00;;;;5084769;28;20433;-70
2021/03/11 02:32:09;;;;;;;21.40;12.90;;;0.10;99.90;-1.30;96847.00;;;;5085588;28;20434;-70
2021/03/11 02:35:00;;;;;;;23.20;13.20;;;0.10;99.90;-1.40;96842.00;;;;5085016;28;20979;-70
2021/03/11 02:37:52;;;;;;;21.43;13.57;;;0.10;99.90;-1.40;96837.00;;;;5085902;28;20450;-71
2021/03/11 02:40:41;;;;;;;22.33;13.73;;;0.00;99.90;-1.40;96833.00;;;;5084677;28;20820;-70
2021/03/11 02:43:29;;;;;;;19.13;14.13;;;0.00;99.90;-1.30;96835.00;;;;5085479;28;20498;-70
2021/03/11 02:46:21;;;;;;;19.63;13.80;;;0.00;99.90;-1.30;96837.00;;;;5085152;28;20548;-69
2021/03/11 02:49:09;;;;;;;25.37;14.83;;;0.00;99.90;-1.40;96836.00;;;;5085215;28;20434;-70
2021/03/11 02:51:57;;;;;;;24.10;14.47;;;0.00;99.90;-1.40;96835.00;;;;5085039;28;20437;-68
2021/03/11 02:54:47;;;;;;;23.17;15.97;;;0.00;99.90;-1.30;96832.00;;;;5084719;28;20436;-70
2021/03/11 02:57:37;;;;;;;25.47;15.30;;;0.00;99.90;-1.30;96832.00;;;;5084268;28;20446;-69
2021/03/11 03:00:28;;;;;;;21.63;14.27;;;0.00;99.90;-1.10;96839.00;;;;5073506;28;20440;-70
2021/03/11 03:03:17;;;;;;;23.00;15.67;;;0.00;99.90;-1.20;96835.00;;;;5085193;28;20442;-69
2021/03/11 03:06:06;;;;;;;26.47;15.83;;;0.00;99.90;-1.20;96836.00;;;;5080251;28;20477;-70
2021/03/11 03:08:54;;;;;;;18.73;13.50;;;0.10;99.90;-1.20;96825.00;;;;5081319;28;20429;-71
2021/03/11 03:11:43;;;;;;;24.30;15.60;;;0.10;99.90;-1.20;96816.00;;;;5072941;28;20436;-70
2021/03/11 03:14:31;;;;;;;22.83;14.70;;;0.10;99.90;-1.10;96822.00;;;;5084886;28;20441;-71
2021/03/11 03:17:21;;;;;;;20.07;13.53;;;0.10;99.90;-1.00;96824.00;;;;5084869;28;20446;-71
2021/03/11 03:20:12;;;;;;;23.70;15.80;;;0.20;99.90;-0.90;96825.00;;;;5084287;28;20438;-70
2021/03/11 03:23:05;;;;;;;24.37;15.40;;;0.20;99.90;-0.90;96835.00;;;;5083642;28;20414;-71
2021/03/11 03:26:09;;;;;;;29.67;14.53;;;0.30;99.90;-1.00;96830.00;;;;5083913;28;20465;-71
2021/03/11 03:28:56;;;;;;;21.57;15.60;;;0.30;99.90;-1.00;96816.00;;;;5084626;28;20429;-70
2021/03/11 03:31:45;;;;;;;24.57;13.73;;;0.30;99.90;-1.00;96814.00;;;;5084562;28;20436;-70
2021/03/11 03:34:33;;;;;;;21.80;14.00;;;0.70;99.90;-1.00;96820.00;;;;5086926;28;20815;-70
2021/03/11 03:37:22;;;;;;;23.10;14.80;;;0.30;99.90;-1.00;96819.00;;;;5088675;28;20453;-69
2021/03/11 03:40:13;;;;;;;21.37;14.50;;;0.30;99.90;-1.00;96820.00;;;;5088648;28;20440;-70
2021/03/11 03:43:11;;;;;;;27.40;14.27;;;0.30;99.90;-0.90;96822.00;;;;5086780;28;20460;-70
2021/03/11 03:46:06;;;;;;;21.67;14.10;;;0.20;99.90;-0.90;96812.00;;;;5088009;28;20473;-70
2021/03/11 03:48:57;;;;;;;22.07;13.63;;;0.30;99.90;-0.90;96811.00;;;;5089015;28;20952;-69
2021/03/11 03:51:49;;;;;;;19.30;13.20;;;0.40;99.90;-0.90;96814.00;;;;5088271;28;20941;-69
2021/03/11 03:54:42;;;;;;;17.40;12.83;;;0.30;99.90;-0.90;96802.00;;;;5089657;28;20797;-70
2021/03/11 03:57:31;;;;;;;19.67;13.23;;;0.40;99.90;-0.80;96797.00;;;;5087818;28;20453;-71
2021/03/11 04:00:21;;;;;;;22.77;15.20;;;0.40;99.90;-0.80;96808.00;;;;5074717;28;20504;-70
2021/03/11 04:03:09;;;;;;;22.40;14.97;;;0.40;99.90;-0.90;96796.00;;;;5088831;28;20425;-70
2021/03/11 04:05:58;;;;;;;22.43;12.70;;;0.40;99.90;-0.90;96797.00;;;;5088806;28;20469;-71
2021/03/11 04:08:47;;;;;;;24.03;13.93;;;0.40;99.90;-0.90;96787.00;;;;5087749;28;20433;-71
2021/03/11 04:11:36;;;;;;;22.23;14.00;;;-1.00;99.90;-0.90;96799.00;;;;5089137;28;20425;-71
2021/03/11 04:14:26;;;;;;;18.77;12.63;;;0.40;99.90;-0.90;96802.00;;;;5087909;28;20421;-70
2021/03/11 04:17:14;;;;;;;20.13;13.57;;;0.40;99.90;-0.90;96784.00;;;;5087534;28;20836;-69
2021/03/11 04:20:04;;;;;;;18.33;13.70;;;0.30;99.90;-0.90;96785.00;;;;5088238;28;20425;-70
2021/03/11 04:22:53;;;;;;;43.97;16.50;;;0.30;99.90;-0.90;96787.00;;;;5086941;28;20953;-70
2021/03/11 04:25:41;;;;;;;22.97;12.80;;;0.30;99.90;-0.90;96795.00;;;;5087230;28;20473;-70
2021/03/11 04:28:30;;;;;;;20.40;13.93;;;0.30;99.90;-0.90;96790.00;;;;5088121;28;20456;-71
2021/03/11 04:31:19;;;;;;;22.13;14.00;;;0.40;99.90;-0.90;96787.00;;;;5077136;28;20805;-70
2021/03/11 04:34:08;;;;;;;20.23;12.10;;;0.40;99.90;-1.00;96783.00;;;;5088656;28;20448;-71
2021/03/11 04:36:57;;;;;;;21.73;14.13;;;0.40;99.90;-1.00;96783.00;;;;5087100;28;20449;-70
2021/03/11 04:39:47;;;;;;;22.93;14.50;;;0.30;99.90;-1.00;96785.00;;;;5088210;28;20952;-71
2021/03/11 04:42:36;;;;;;;18.50;13.83;;;0.30;99.90;-1.00;96780.00;;;;5086806;28;20968;-71
2021/03/11 04:45:25;;;;;;;20.10;14.57;;;0.30;99.90;-1.00;96767.00;;;;5087160;28;20476;-70
2021/03/11 04:48:13;;;;;;;21.90;14.17;;;0.30;99.90;-1.00;96772.00;;;;5094317;28;20445;-71
2021/03/11 04:51:03;;;;;;;23.27;14.43;;;0.30;99.90;-1.10;96776.00;;;;5093627;28;20437;-71
2021/03/11 04:53:55;;;;;;;24.63;14.80;;;0.30;99.90;-1.10;96779.00;;;;5087925;28;20422;-68
2021/03/11 04:56:43;;;;;;;20.10;13.57;;;0.20;99.90;-1.10;96779.00;;;;5085744;28;20446;-70
2021/03/11 04:59:32;;;;;;;19.43;13.47;;;0.20;99.90;-1.10;96784.00;;;;5087282;28;20448;-69
2021/03/11 05:02:21;;;;;;;22.87;13.97;;;0.20;99.90;-1.10;96779.00;;;;5087438;28;20433;-70
2021/03/11 05:05:11;;;;;;;26.93;16.80;;;0.20;99.90;-1.30;96769.00;;;;5087160;28;20956;-70
2021/03/11 05:07:58;;;;;;;26.70;15.10;;;0.20;99.90;-1.20;96774.00;;;;5086460;28;20460;-70
2021/03/11 05:10:46;;;;;;;22.17;16.67;;;0.10;99.90;-1.20;96772.00;;;;5086005;28;20999;-70
2021/03/11 05:13:34;;;;;;;18.70;13.47;;;0.10;99.90;-1.10;96778.00;;;;5086364;28;20448;-71
2021/03/11 05:16:22;;;;;;;23.60;14.07;;;0.10;99.90;-1.00;96770.00;;;;5086190;28;20437;-70
2021/03/11 05:19:11;;;;;;;24.63;15.60;;;0.10;99.90;-1.00;96769.00;;;;5087325;28;20487;-70
2021/03/11 05:21:59;;;;;;;20.00;13.00;;;0.20;99.90;-1.00;96771.00;;;;5085156;28;20445;-71
2021/03/11 05:24:47;;;;;;;23.33;13.33;;;0.20;99.90;-1.10;96775.00;;;;5086334;28;20828;-71
2021/03/11 05:27:37;;;;;;;25.30;14.67;;;0.20;99.90;-1.00;96777.00;;;;5086973;28;20476;-71
2021/03/11 05:30:25;;;;;;;21.33;14.87;;;0.20;99.90;-1.00;96764.00;;;;5086883;28;20440;-71
2021/03/11 05:33:13;;;;;;;20.97;14.00;;;0.20;99.90;-1.10;96769.00;;;;5087604;28;20430;-71
2021/03/11 05:36:02;;;;;;;24.33;14.17;;;0.20;99.90;-1.20;96756.00;;;;5074456;28;20441;-70
2021/03/11 05:38:49;;;;;;;21.40;13.87;;;0.20;99.90;-1.20;96752.00;;;;5086238;28;20430;-71
2021/03/11 05:41:41;;;;;;;23.37;15.53;;;0.20;99.90;-1.20;96760.00;;;;5084778;28;20445;-70
2021/03/11 05:44:29;;;;;;;21.73;14.87;;;0.10;99.90;-1.20;96754.00;;;;5083778;28;20451;-70
2021/03/11 05:47:18;;;;;;;22.13;14.90;;;0.10;99.90;-1.00;96756.00;;;;5085876;28;20473;-69
2021/03/11 05:50:09;;;;;;;20.27;13.77;;;0.10;99.90;-1.00;96757.00;;;;5086301;28;20437;-71
2021/03/11 05:52:58;;;;;;;21.07;14.10;;;0.20;99.90;-1.10;96752.00;;;;5085015;28;20437;-71
2021/03/11 05:55:46;;;;;;;22.10;15.10;;;0.20;99.90;-1.00;96751.00;;;;5087324;28;20438;-71
2021/03/11 05:58:34;;;;;;;20.50;14.00;;;0.20;99.90;-1.00;96747.00;;;;5084598;28;20948;-71
2021/03/11 06:01:24;;;;;;;21.93;14.70;;;0.20;99.90;-1.10;96754.00;;;;5085411;28;20441;-70
2021/03/11 06:04:13;;;;;;;24.40;15.57;;;0.20;99.90;-1.00;96750.00;;;;5086257;28;20436;-71
2021/03/11 06:07:02;;;;;;;22.47;14.43;;;0.30;99.90;-0.80;96755.00;;;;5085933;28;20473;-71
2021/03/11 06:09:56;;;;;;;19.90;13.93;;;0.30;99.90;-0.70;96746.00;;;;5085951;28;20437;-70
2021/03/11 06:12:47;;;;;;;20.43;14.23;;;0.40;99.90;-0.70;96740.00;;;;5086484;28;20442;-71
2021/03/11 06:15:37;;;;;;;20.40;13.53;;;0.50;99.90;-0.80;96733.00;;;;5081439;28;20954;-70
2021/03/11 06:18:33;;;;;;;24.67;15.20;;;0.50;99.90;-0.80;96731.00;;;;5084190;27;20594;-72
2021/03/11 06:21:21;;;;;;;22.50;14.67;;;0.50;99.90;-0.80;96724.00;;;;5078321;28;20433;-71
2021/03/11 06:24:10;;;;;;;24.53;16.00;;;0.50;99.90;-0.80;96727.00;;;;5077493;28;20436;-71
2021/03/11 06:26:58;;;;;;;27.30;15.70;;;0.50;99.90;-0.70;96725.00;;;;5070482;28;20469;-71
2021/03/11 06:29:46;;;;;;;27.97;15.53;;;0.50;99.90;-0.70;96732.00;;;;5090518;28;20441;-71
2021/03/11 06:32:53;;;;;;;22.03;14.90;;;0.50;99.90;-0.60;96727.00;;;;5095749;28;20951;-71
2021/03/11 06:35:43;;;;;;;20.70;14.40;;;-0.20;99.90;-0.50;96743.00;;;;5083159;28;20434;-70
2021/03/11 06:38:31;;;;;;;23.57;14.10;;;0.60;99.90;-0.50;96734.00;;;;5083352;28;20955;-71
2021/03/11 06:41:19;;;;;;;24.50;16.43;;;0.70;99.90;-0.50;96736.00;;;;5082231;28;20434;-71
2021/03/11 06:44:07;;;;;;;25.53;15.80;;;0.70;99.90;-0.40;96730.00;;;;5090816;28;20462;-71
2021/03/11 06:46:58;;;;;;;20.87;13.87;;;0.70;99.90;-0.30;96726.00;;;;5082497;28;20453;-71
2021/03/11 06:49:57;;;;;;;23.83;13.83;;;0.80;99.90;-0.30;96724.00;;;;5094316;28;20459;-70
2021/03/11 06:53:04;;;;;;;25.53;16.03;;;0.80;99.90;-0.30;96717.00;;;;5093568;28;20445;-71
2021/03/11 06:55:52;;;;;;;23.07;15.07;;;0.90;99.90;-0.30;96727.00;;;;5090874;27;21375;-71
2021/03/11 06:58:42;;;;;;;20.47;13.43;;;0.70;99.90;-0.10;96728.00;;;;5102467;28;20417;-71
2021/03/11 07:01:32;;;;;;;21.27;13.73;;;1.00;99.90;-0.10;96734.00;;;;5093968;28;20441;-69
2021/03/11 07:04:23;;;;;;;17.93;13.50;;;1.10;99.90;-0.10;96736.00;;;;5090456;28;20456;-69
2021/03/11 07:07:18;;;;;;;21.73;14.00;;;1.10;99.90;0.00;96740.00;;;;5090577;28;20458;-69
2021/03/11 07:10:13;;;;;;;26.43;15.50;;;1.10;99.90;0.10;96741.00;;;;5080933;28;20440;-69
2021/03/11 07:13:01;;;;;;;23.03;15.37;;;1.20;99.90;0.30;96746.00;;;;5083786;28;20441;-68
2021/03/11 07:15:56;;;;;;;25.67;17.23;;;1.30;99.90;0.40;96752.00;;;;5080556;28;20426;-68
2021/03/11 07:18:49;;;;;;;36.63;20.97;;;1.40;99.90;0.50;96750.00;;;;5082939;28;20778;-69
2021/03/11 07:21:43;;;;;;;30.40;16.23;;;2.20;99.90;0.60;96745.00;;;;5093808;28;20458;-68
2021/03/11 07:24:35;;;;;;;22.03;13.20;;;1.60;99.90;0.70;96742.00;;;;5081308;28;20437;-69
2021/03/11 07:27:25;;;;;;;22.37;13.33;;;1.70;99.90;0.90;96749.00;;;;5096516;28;20461;-68
2021/03/11 07:30:15;;;;;;;19.53;13.37;;;1.80;99.90;1.20;96749.00;;;;5073766;28;20438;-68
2021/03/11 07:33:04;;;;;;;19.87;12.77;;;2.00;99.90;1.30;96755.00;;;;5071229;28;20452;-69
2021/03/11 07:35:56;;;;;;;22.83;13.57;;;2.20;99.90;1.50;96731.00;;;;5084343;28;20430;-68
2021/03/11 07:38:45;;;;;;;20.07;11.83;;;2.30;99.90;1.80;96742.00;;;;5067735;28;20811;-68
2021/03/11 07:41:33;;;;;;;24.63;12.80;;;2.50;99.90;2.00;96744.00;;;;5072149;28;20437;-68
2021/03/11 07:44:22;;;;;;;20.93;13.50;;;2.70;99.90;2.10;96740.00;;;;5081517;28;20430;-68
2021/03/11 07:47:10;;;;;;;21.07;14.80;;;2.80;99.90;2.20;96744.00;;;;5086750;28;20446;-68
2021/03/11 07:50:00;;;;;;;25.13;14.07;;;3.00;99.90;2.30;96742.00;;;;5100680;28;20437;-68
2021/03/11 07:52:49;;;;;;;17.17;12.17;;;3.10;99.90;2.40;96745.00;;;;5088507;28;20825;-68
2021/03/11 07:55:38;;;;;;;18.83;12.37;;;3.30;99.90;2.50;96753.00;;;;5087302;28;20856;-68
2021/03/11 07:58:26;;;;;;;18.57;13.27;;;3.40;99.90;2.40;96746.00;;;;5085373;28;20469;-68
2021/03/11 08:01:15;;;;;;;16.93;12.93;;;3.40;99.90;2.50;96744.00;;;;5076433;28;20434;-68
2021/03/11 08:04:04;;;;;;;26.90;15.17;;;3.40;99.90;2.50;96728.00;;;;5084884;28;20429;-69
2021/03/11 08:06:52;;;;;;;19.67;13.60;;;3.50;99.90;2.50;96730.00;;;;5077598;28;20456;-69
2021/03/11 08:09:40;;;;;;;20.80;14.50;;;3.50;99.90;2.40;96748.00;;;;5069897;28;20431;-69
2021/03/11 08:12:34;;;;;;;19.80;13.87;;;3.50;99.90;2.50;96734.00;;;;5076548;28;20462;-69
2021/03/11 08:15:33;;;;;;;19.43;13.07;;;3.50;99.90;2.40;96731.00;;;;5082854;28;20535;-69
2021/03/11 08:18:45;;;;;;;24.93;14.63;;;3.50;99.90;2.40;96741.00;;;;5075922;28;20478;-69
2021/03/11 08:21:46;;;;;;;20.77;14.93;;;3.50;99.90;2.50;96741.00;;;;5069605;28;20448;-68
2021/03/11 08:24:46;;;;;;;23.07;14.47;;;3.50;99.90;2.60;96730.00;;;;5083220;28;20422;-68
2021/03/11 08:27:42;;;;;;;16.63;12.40;;;3.60;99.90;2.70;96726.00;;;;5076835;28;20451;-69
2021/03/11 08:30:52;;;;;;;23.27;13.70;;;3.60;99.90;2.70;96720.00;;;;5075736;28;20440;-69
2021/03/11 08:33:56;;;;;;;21.53;14.47;;;3.70;99.90;2.80;96724.00;;;;5083956;28;20445;-69
2021/03/11 08:36:44;;;;;;;26.80;15.17;;;3.80;99.90;2.90;96729.00;;;;5075020;28;20461;-69
2021/03/11 08:39:36;;;;;;;23.97;14.73;;;3.80;99.90;3.00;96745.00;;;;5076844;28;20446;-69
2021/03/11 08:42:47;;;;;;;21.43;14.00;;;3.90;99.90;3.20;96728.00;;;;5075076;28;20438;-68
2021/03/11 08:46:02;;;;;;;20.17;14.03;;;4.00;99.90;3.20;96729.00;;;;5083484;28;20453;-68
2021/03/11 08:48:52;;;;;;;21.70;13.27;;;4.10;99.90;3.30;96713.00;;;;5077484;28;20465;-69
2021/03/11 08:51:41;;;;;;;19.60;12.20;;;4.20;99.90;3.60;96701.00;;;;5070156;28;20441;-69
2021/03/11 08:54:30;;;;;;;17.87;13.67;;;4.30;99.90;3.60;96700.00;;;;5083569;28;20445;-69
2021/03/11 08:57:43;;;;;;;25.10;13.70;;;4.40;99.90;3.60;96713.00;;;;5068362;28;20497;-69
2021/03/11 09:01:00;;;;;;;21.13;13.50;;;4.50;99.90;3.60;96697.00;;;;5066991;28;20453;-69
2021/03/11 09:03:47;;;;;;;23.80;16.07;;;4.60;99.90;3.80;96693.00;;;;5067601;28;20423;-69
2021/03/11 09:06:54;;;;;;;22.03;14.80;;;4.60;99.90;4.00;96678.00;;;;5074478;28;20459;-68
2021/03/11 09:09:45;;;;;;;22.33;15.27;;;4.80;99.90;4.10;96697.00;;;;5078684;28;20417;-69
2021/03/11 09:12:36;;;;;;;19.23;14.13;;;4.80;99.90;4.00;96676.00;;;;5076191;28;20470;-68
2021/03/11 09:15:25;;;;;;;24.37;18.10;;;4.90;99.90;4.00;96669.00;;;;5082466;28;20436;-69
2021/03/11 09:18:13;;;;;;;24.23;15.47;;;5.00;99.90;4.20;96675.00;;;;5075411;28;20485;-68
2021/03/11 09:21:06;;;;;;;23.87;15.57;;;5.00;99.90;4.20;96678.00;;;;5065660;28;20575;-68
2021/03/11 09:23:55;;;;;;;22.03;13.97;;;5.10;99.90;4.40;96676.00;;;;5066196;28;20437;-69
2021/03/11 09:26:43;;;;;;;26.50;16.70;;;5.20;99.90;4.50;96687.00;;;;5066595;28;20501;-68
2021/03/11 09:29:31;;;;;;;24.63;15.63;;;5.30;99.90;4.60;96675.00;;;;5096175;28;20214;-68
2021/03/11 09:32:19;;;;;;;28.80;18.23;;;5.30;99.90;4.60;96686.00;;;;5096439;28;20580;-68
2021/03/11 09:35:10;;;;;;;22.77;15.90;;;5.40;99.90;4.60;96683.00;;;;5099701;28;20214;-69
2021/03/11 09:37:59;;;;;;;19.20;13.47;;;5.40;99.90;4.60;96684.00;;;;5084448;28;20230;-68
2021/03/11 09:40:50;;;;;;;16.67;13.60;;;5.40;99.90;4.50;96682.00;;;;5097126;28;20197;-68
2021/03/11 09:43:39;;;;;;;19.10;13.00;;;5.50;99.90;4.40;96669.00;;;;5103544;28;20199;-68
2021/03/11 09:46:27;;;;;;;20.30;13.63;;;5.50;99.90;4.70;96660.00;;;;5100698;28;20226;-69
2021/03/11 09:49:22;;;;;;;21.30;13.70;;;5.50;99.90;5.00;96649.00;;;;5100653;28;20202;-68
2021/03/11 09:52:13;;;;;;;17.20;12.17;;;5.60;99.90;5.00;96653.00;;;;5093123;28;20199;-69
2021/03/11 09:55:01;;;;;;;20.50;13.30;;;5.70;99.90;5.30;96645.00;;;;5098936;28;20565;-69
2021/03/11 09:57:49;;;;;;;24.97;15.13;;;5.90;99.90;5.50;96637.00;;;;5097349;28;20226;-69
2021/03/11 10:00:37;;;;;;;23.40;16.27;;;6.00;99.90;5.50;96646.00;;;;5094318;28;20566;-68
2021/03/11 10:03:28;;;;;;;25.80;15.37;;;6.20;99.90;6.00;96641.00;;;;5098005;28;20211;-68
2021/03/11 10:06:17;;;;;;;16.77;13.03;;;6.40;99.90;6.30;96635.00;;;;5092488;27;20799;-68
2021/03/11 10:09:09;;;;;;;18.10;12.83;;;6.60;99.90;6.20;96640.00;;;;5095733;28;20224;-68
2021/03/11 10:12:01;;;;;;;14.43;11.70;;;6.80;99.90;6.00;96630.00;;;;5100406;27;20584;-69
2021/03/11 10:15:07;;;;;;;14.03;11.27;;;6.90;96.40;6.40;96627.00;;;;5087784;28;20217;-68
2021/03/11 10:18:10;;;;;;;19.27;13.23;;;7.10;94.40;6.40;96618.00;;;;5099761;28;20227;-68
2021/03/11 10:21:05;;;;;;;22.03;14.33;;;7.20;94.90;6.70;96615.00;;;;5090150;28;20315;-68
2021/03/11 10:23:53;;;;;;;17.60;13.37;;;7.10;95.60;5.70;96617.00;;;;5095518;28;20203;-69
2021/03/11 10:26:41;;;;;;;18.23;12.87;;;7.30;92.30;5.90;96615.00;;;;5083272;28;20775;-68
2021/03/11 10:29:31;;;;;;;18.23;13.33;;;7.20;92.40;5.70;96625.00;;;;5083671;28;20225;-68
2021/03/11 10:32:26;;;;;;;18.43;11.10;;;7.10;92.10;5.70;96625.00;;;;5096600;28;20198;-68
2021/03/11 10:35:27;;;;;;;21.53;14.23;;;6.90;92.00;5.90;96611.00;;;;5098633;28;20214;-67
2021/03/11 10:38:18;;;;;;;23.67;14.70;;;6.80;93.00;6.00;96610.00;;;;5094660;28;20641;-68
2021/03/11 10:41:12;;;;;;;20.17;13.60;;;6.80;93.80;6.00;96617.00;;;;5100463;28;20218;-69
2021/03/11 10:44:14;;;;;;;24.40;15.43;;;6.90;94.00;6.30;96609.00;;;;5101460;28;20700;-67
2021/03/11 10:47:18;;;;;;;20.10;14.00;;;7.00;94.50;6.10;96602.00;;;;5102476;28;20234;-68
2021/03/11 10:50:22;;;;;;;20.10;14.03;;;7.00;93.50;6.60;96601.00;;;;5083740;28;20211;-69
2021/03/11 10:53:10;;;;;;;18.30;13.43;;;7.10;94.20;6.80;96600.00;;;;5083114;28;20214;-68
2021/03/11 10:56:06;;;;;;;21.00;12.93;;;7.30;94.40;6.60;96603.00;;;;5084751;28;20203;-68
2021/03/11 10:59:03;;;;;;;22.83;14.87;;;7.40;93.40;6.50;96600.00;;;;5088324;28;20234;-68
2021/03/11 11:01:51;;;;;;;24.50;14.73;;;7.40;93.20;6.80;96601.00;;;;5085199;28;20611;-68
2021/03/11 11:04:40;;;;;;;27.83;16.40;;;7.50;93.70;6.80;96595.00;;;;5086074;28;20428;-68
2021/03/11 11:07:29;;;;;;;20.60;14.40;;;7.60;93.00;7.10;96574.00;;;;5088498;28;20215;-68
2021/03/11 11:10:19;;;;;;;24.43;15.77;;;7.70;93.90;7.20;96572.00;;;;5068905;28;20882;-69
2021/03/11 11:13:07;;;;;;;27.13;17.10;;;7.80;93.10;7.40;96580.00;;;;5068601;28;20207;-69
2021/03/11 11:15:55;;;;;;;23.77;16.57;;;7.90;92.70;7.30;96578.00;;;;5067852;28;20706;-69
2021/03/11 11:18:44;;;;;;;29.60;17.57;;;8.00;91.40;7.60;96580.00;;;;5069752;28;20219;-69
2021/03/11 11:21:32;;;;;;;19.73;15.17;;;8.10;91.70;7.40;96575.00;;;;5091761;28;20322;-69
2021/03/11 11:24:21;;;;;;;25.17;16.17;;;8.20;90.90;6.50;96561.00;;;;5089871;28;20199;-69
2021/03/11 11:27:11;;;;;;;25.13;16.33;;;8.20;90.00;6.90;96565.00;;;;5083591;28;20234;-70
2021/03/11 11:29:58;;;;;;;23.20;17.00;;;8.00;90.60;7.10;96561.00;;;;5068666;28;20200;-68
2021/03/11 11:32:46;;;;;;;26.33;17.57;;;8.00;91.10;7.30;96567.00;;;;5085804;28;20749;-69
2021/03/11 11:35:34;;;;;;;23.43;17.23;;;8.00;91.70;7.20;96564.00;;;;5085633;28;20264;-69
2021/03/11 11:38:22;;;;;;;26.77;16.03;;;8.00;91.70;6.60;96553.00;;;;5069153;28;20223;-68
2021/03/11 11:41:11;;;;;;;23.63;15.87;;;7.90;90.90;6.90;96545.00;;;;5084086;28;20195;-69
2021/03/11 11:43:59;;;;;;;29.00;17.53;;;7.80;91.20;7.00;96549.00;;;;5075608;28;20200;-69
2021/03/11 11:46:47;;;;;;;39.37;20.57;;;7.80;91.40;7.10;96556.00;;;;5078872;28;20223;-69
2021/03/11 11:49:35;;;;;;;26.77;18.70;;;7.80;91.90;6.90;96558.00;;;;5088920;28;20211;-69
2021/03/11 11:52:23;;;;;;;29.67;17.50;;;7.80;91.80;6.80;96540.00;;;;5079994;28;20310;-69
2021/03/11 11:55:12;;;;;;;28.17;18.17;;;7.80;91.40;6.50;96541.00;;;;5083405;28;20278;-69
2021/03/11 11:58:01;;;;;;;32.73;20.93;;;7.30;91.50;6.50;96527.00;;;;5084447;28;20226;-69
2021/03/11 12:00:49;;;;;;;28.63;20.30;;;7.50;92.20;6.30;96515.00;;;;5082707;28;20655;-69
2021/03/11 12:03:37;;;;;;;26.40;17.57;;;7.40;92.20;6.00;96507.00;;;;5082851;28;20199;-68
2021/03/11 12:06:25;;;;;;;32.90;16.93;;;7.30;92.10;5.70;96519.00;;;;5083374;28;20219;-69
2021/03/11 12:09:13;;;;;;;29.33;18.50;;;7.10;92.50;5.80;96512.00;;;;5081077;28;20192;-69
2021/03/11 12:12:02;;;;;;;28.67;17.77;;;7.00;92.70;6.00;96494.00;;;;5080864;28;20195;-70
2021/03/11 12:14:51;;;;;;;30.97;18.33;;;7.00;93.20;5.80;96498.00;;;;5081404;28;20252;-68
2021/03/11 12:17:40;;;;;;;29.20;18.53;;;6.90;93.50;5.70;96485.00;;;;5081764;28;20238;-68
2021/03/11 12:20:28;;;;;;;29.10;18.40;;;6.90;93.90;5.80;96479.00;;;;5082254;28;20200;-68
2021/03/11 12:23:17;;;;;;;27.13;18.30;;;6.90;93.90;6.00;96478.00;;;;5083264;28;20203;-68
2021/03/11 12:26:05;;;;;;;25.27;17.63;;;6.90;94.30;6.10;96476.00;;;;5082006;28;20217;-68
2021/03/11 12:28:52;;;;;;;24.73;18.50;;;6.90;93.70;6.30;96478.00;;;;5084676;28;20211;-68
2021/03/11 12:31:44;;;;;;;25.60;18.33;;;7.00;93.90;6.20;96479.00;;;;5086289;28;20574;-68
2021/03/11 12:34:32;;;;;;;26.97;18.77;;;7.00;93.80;6.30;96477.00;;;;5091132;28;20306;-68